Time;durP1;ratioP1;P1;durP2;ratioP2;P2;SDS_P1;SDS_P2;PMS_P1;PMS_P2;Temp;Humidity;BMP_temperature;BMP_pressure;BME280_temperature;BME280_humidity;BME280_pressure;Samples;Min_cycle;Max_cycle;Signal;HPM_P1;HPM_P2
2022/10/25 00:02:16;;;;;;;4.07;2.55;;;13.10;99.90;;;;;;5031443;28;20018;-61
2022/10/25 00:04:43;;;;;;;6.45;3.20;;;13.20;99.90;;;;;;5031201;28;20026;-61
2022/10/25 00:07:08;;;;;;;7.22;2.80;;;13.20;99.90;;;;;;5031309;28;20033;-61
2022/10/25 00:09:34;;;;;;;9.55;3.50;;;13.30;99.90;;;;;;5031285;28;20029;-61
2022/10/25 00:11:59;;;;;;;6.18;3.38;;;13.30;99.90;;;;;;5030830;28;20021;-62
2022/10/25 00:14:25;;;;;;;12.05;3.70;;;13.30;99.90;;;;;;5031080;28;20112;-61
2022/10/25 00:16:51;;;;;;;11.70;3.97;;;13.40;99.90;;;;;;5033975;28;20022;-60
2022/10/25 00:19:16;;;;;;;8.07;4.25;;;13.40;99.90;;;;;;5034263;28;20029;-60
2022/10/25 00:21:42;;;;;;;10.27;4.38;;;13.40;99.90;;;;;;5035170;28;20026;-61
2022/10/25 00:24:10;;;;;;;9.18;4.57;;;13.40;99.90;;;;;;5034899;28;20107;-62
2022/10/25 00:26:35;;;;;;;12.88;4.65;;;13.40;99.90;;;;;;5034369;28;20060;-61
2022/10/25 00:29:01;;;;;;;11.27;4.43;;;13.40;99.90;;;;;;5034745;28;20409;-62
2022/10/25 00:31:26;;;;;;;9.45;4.50;;;13.40;99.90;;;;;;5035009;28;20033;-63
2022/10/25 00:33:52;;;;;;;13.60;5.15;;;13.40;99.90;;;;;;5034143;28;20022;-62
2022/10/25 00:36:20;;;;;;;10.00;4.70;;;13.40;99.90;;;;;;5034588;28;20035;-64
2022/10/25 00:38:46;;;;;;;9.90;4.78;;;13.40;99.90;;;;;;5034690;28;20400;-61
2022/10/25 00:41:18;;;;;;;12.23;5.32;;;13.40;99.90;;;;;;5033922;28;20113;-61
2022/10/25 00:43:47;;;;;;;10.70;5.07;;;13.40;99.90;;;;;;5033017;28;20151;-61
2022/10/25 00:46:19;;;;;;;12.68;5.50;;;13.50;99.90;;;;;;5034619;28;20033;-61
2022/10/25 00:48:59;;;;;;;11.45;4.65;;;13.50;99.90;;;;;;5036647;28;20026;-60
2022/10/25 00:51:33;;;;;;;11.00;4.93;;;13.50;99.90;;;;;;5038603;28;20028;-65
2022/10/25 00:53:58;;;;;;;11.50;4.38;;;13.50;99.90;;;;;;5034182;28;20055;-67
2022/10/25 00:56:28;;;;;;;11.07;4.70;;;13.50;99.90;;;;;;5034344;28;20037;-67
2022/10/25 00:58:58;;;;;;;9.80;5.03;;;13.40;99.90;;;;;;5034167;28;20022;-65
2022/10/25 01:01:24;;;;;;;12.55;5.35;;;13.50;99.90;;;;;;5033667;28;20021;-67
2022/10/25 01:03:53;;;;;;;8.98;4.68;;;13.50;99.90;;;;;;5034274;28;20092;-61
2022/10/25 01:06:33;;;;;;;14.68;5.00;;;13.50;99.90;;;;;;5034239;28;20117;-61
2022/10/25 01:09:01;;;;;;;10.40;5.03;;;13.50;99.90;;;;;;5033814;28;20022;-61
2022/10/25 01:11:26;;;;;;;8.80;4.55;;;13.50;99.90;;;;;;5034309;28;20022;-61
2022/10/25 01:13:53;;;;;;;12.32;5.82;;;13.50;99.90;;;;;;5034103;28;20031;-61
2022/10/25 01:16:25;;;;;;;13.65;5.35;;;13.50;99.90;;;;;;5033220;28;20033;-62
2022/10/25 01:19:28;;;;;;;10.75;5.32;;;13.50;99.90;;;;;;5033651;28;20462;-61
2022/10/25 01:22:12;;;;;;;15.48;5.85;;;13.50;99.90;;;;;;5049333;28;20036;-61
2022/10/25 01:24:49;;;;;;;13.35;4.40;;;13.50;99.90;;;;;;5033658;28;20033;-61
2022/10/25 01:27:27;;;;;;;11.27;4.45;;;13.50;99.90;;;;;;5033350;28;20038;-61
2022/10/25 01:30:03;;;;;;;9.80;5.18;;;13.50;99.90;;;;;;5033121;28;20026;-61
2022/10/25 01:32:35;;;;;;;10.13;5.18;;;13.50;99.90;;;;;;5031542;28;20128;-60
2022/10/25 01:35:15;;;;;;;11.82;4.50;;;13.50;99.90;;;;;;5033025;28;20079;-60
2022/10/25 01:37:52;;;;;;;10.93;4.55;;;13.50;99.90;;;;;;5032757;28;20021;-61
2022/10/25 01:41:03;;;;;;;9.80;4.10;;;13.60;99.90;;;;;;5033222;28;20458;-61
2022/10/25 01:43:51;;;;;;;9.75;4.80;;;13.50;99.90;;;;;;4990521;28;20038;-61
2022/10/25 01:46:40;;;;;;;9.32;4.40;;;13.60;99.90;;;;;;5030830;28;20140;-61
2022/10/25 01:49:11;;;;;;;13.70;5.45;;;13.60;99.90;;;;;;5033241;28;20497;-61
2022/10/25 01:51:37;;;;;;;;;;;13.60;99.90;;;;;;5033008;28;20108;-60
2022/10/25 01:54:15;;;;;;;12.98;5.30;;;13.60;99.90;;;;;;5033055;28;19955;-60
2022/10/25 01:57:10;;;;;;;11.70;5.00;;;13.50;99.90;;;;;;5033115;28;20017;-60
2022/10/25 01:59:46;;;;;;;10.10;5.00;;;13.50;99.90;;;;;;5027210;28;20041;-60
2022/10/25 02:02:24;;;;;;;8.85;4.65;;;13.50;99.90;;;;;;5032920;28;20037;-60
2022/10/25 02:05:22;;;;;;;12.57;6.10;;;13.50;99.90;;;;;;5032483;28;20021;-60
2022/10/25 02:08:03;;;;;;;10.57;6.07;;;13.60;99.90;;;;;;5033110;28;20430;-61
2022/10/25 02:10:39;;;;;;;12.40;5.88;;;13.60;99.90;;;;;;5032885;28;20026;-60
2022/10/25 02:13:32;;;;;;;12.93;6.28;;;13.60;99.90;;;;;;5030335;28;20096;-61
2022/10/25 02:16:06;;;;;;;11.55;5.30;;;13.60;99.90;;;;;;5032461;28;20465;-61
2022/10/25 02:18:36;;;;;;;11.98;5.25;;;13.60;99.90;;;;;;5032035;28;20030;-62
2022/10/25 02:21:05;;;;;;;9.68;4.70;;;13.50;99.90;;;;;;5032755;28;20029;-61
2022/10/25 02:23:33;;;;;;;13.48;4.82;;;13.50;99.90;;;;;;5032688;28;20122;-61
2022/10/25 02:26:00;;;;;;;8.40;4.88;;;13.40;99.90;;;;;;5031604;28;20037;-61
2022/10/25 02:28:29;;;;;;;9.45;4.93;;;13.40;99.90;;;;;;5032434;28;20101;-61
2022/10/25 02:30:57;;;;;;;11.70;4.65;;;13.40;99.90;;;;;;5032653;28;20033;-61
2022/10/25 02:33:23;;;;;;;11.32;4.07;;;13.40;99.90;;;;;;5031925;28;20085;-61
2022/10/25 02:36:12;;;;;;;9.10;4.28;;;13.40;99.90;;;;;;5032446;28;20476;-61
2022/10/25 02:38:39;;;;;;;10.68;4.20;;;13.40;99.90;;;;;;5032248;28;20108;-61
2022/10/25 02:41:05;;;;;;;9.85;5.28;;;13.40;99.90;;;;;;5031344;28;20119;-61
2022/10/25 02:43:31;;;;;;;12.18;4.60;;;13.50;99.90;;;;;;5032210;28;20498;-61
2022/10/25 02:45:57;;;;;;;9.73;4.35;;;13.50;99.90;;;;;;5032106;28;20029;-61
2022/10/25 02:48:23;;;;;;;11.27;4.20;;;13.60;99.90;;;;;;5031903;28;20853;-61
2022/10/25 02:50:48;;;;;;;12.50;4.60;;;13.60;99.90;;;;;;5032680;28;20488;-61
2022/10/25 02:53:14;;;;;;;11.93;4.47;;;13.70;99.90;;;;;;5031895;28;20091;-60
2022/10/25 02:55:39;;;;;;;11.20;4.50;;;13.70;99.90;;;;;;5037455;28;20033;-62
2022/10/25 02:58:06;;;;;;;12.55;5.43;;;13.70;99.90;;;;;;5034063;28;20052;-62
2022/10/25 03:00:32;;;;;;;13.98;4.80;;;13.70;99.90;;;;;;5031915;28;20025;-61
2022/10/25 03:02:57;;;;;;;11.70;4.80;;;13.70;99.90;;;;;;5031802;28;20545;-62
2022/10/25 03:05:23;;;;;;;12.30;4.90;;;13.70;99.90;;;;;;5031675;28;20108;-61
2022/10/25 03:07:48;;;;;;;11.88;4.60;;;13.70;99.90;;;;;;5031216;28;20735;-63
2022/10/25 03:10:14;;;;;;;11.40;5.07;;;13.80;99.90;;;;;;5031673;28;20026;-61
2022/10/25 03:12:40;;;;;;;17.83;5.18;;;13.80;99.90;;;;;;5031777;28;20022;-61
2022/10/25 03:15:06;;;;;;;10.90;4.20;;;13.80;99.90;;;;;;5029940;28;20050;-61
2022/10/25 03:17:31;;;;;;;13.07;4.68;;;13.80;99.90;;;;;;5030978;28;20466;-61
2022/10/25 03:19:57;;;;;;;12.85;4.60;;;13.80;99.90;;;;;;5030315;28;20025;-61
2022/10/25 03:22:22;;;;;;;13.93;4.70;;;13.80;99.90;;;;;;5031156;28;20119;-61
2022/10/25 03:24:48;;;;;;;15.52;4.85;;;13.80;99.90;;;;;;5031380;28;20068;-61
2022/10/25 03:27:14;;;;;;;9.70;5.10;;;13.80;99.90;;;;;;5031749;28;20040;-62
2022/10/25 03:29:39;;;;;;;15.93;7.15;;;13.90;99.90;;;;;;5030710;28;20033;-61
2022/10/25 03:32:06;;;;;;;9.35;5.32;;;13.90;99.90;;;;;;5031370;28;20029;-63
2022/10/25 03:34:32;;;;;;;14.18;6.22;;;13.90;99.90;;;;;;5029293;28;20847;-61
2022/10/25 03:36:58;;;;;;;15.52;6.47;;;13.90;99.90;;;;;;5031478;28;20486;-62
2022/10/25 03:39:24;;;;;;;14.15;6.28;;;13.90;99.90;;;;;;5031925;28;20018;-62
2022/10/25 03:41:49;;;;;;;13.45;6.40;;;13.90;99.90;;;;;;5030998;28;20033;-60
2022/10/25 03:44:15;;;;;;;10.77;5.85;;;13.90;99.90;;;;;;5031572;28;20099;-61
2022/10/25 03:46:41;;;;;;;13.07;6.35;;;13.90;99.90;;;;;;5031218;28;20521;-61
2022/10/25 03:49:06;;;;;;;12.55;6.18;;;13.90;99.90;;;;;;5030902;28;20032;-61
2022/10/25 03:51:32;;;;;;;13.88;5.72;;;13.90;99.90;;;;;;5034069;28;20022;-61
2022/10/25 03:53:57;;;;;;;15.40;6.32;;;14.00;99.90;;;;;;5035618;28;20087;-61
2022/10/25 03:56:23;;;;;;;16.38;6.25;;;14.00;99.90;;;;;;5034801;28;20025;-63
2022/10/25 03:58:49;;;;;;;14.48;6.47;;;14.00;99.90;;;;;;5035193;28;20187;-61
2022/10/25 04:01:14;;;;;;;13.93;5.68;;;13.90;99.90;;;;;;5035529;28;20030;-62
2022/10/25 04:03:40;;;;;;;14.82;7.07;;;13.90;99.90;;;;;;5034451;28;20041;-66
2022/10/25 04:06:06;;;;;;;12.98;6.20;;;13.90;99.90;;;;;;5034524;28;20496;-62
2022/10/25 04:08:31;;;;;;;12.88;5.82;;;13.90;99.90;;;;;;5034841;28;20040;-63
2022/10/25 04:10:57;;;;;;;14.75;6.18;;;13.90;99.90;;;;;;5034299;28;20025;-61
2022/10/25 04:13:22;;;;;;;15.07;6.68;;;13.90;99.90;;;;;;5034667;28;20033;-61
2022/10/25 04:15:48;;;;;;;11.85;6.15;;;13.90;99.90;;;;;;5034897;28;20013;-61
2022/10/25 04:18:13;;;;;;;16.10;6.40;;;14.00;99.90;;;;;;5034070;28;20026;-61
2022/10/25 04:20:39;;;;;;;13.75;5.75;;;14.00;99.90;;;;;;5034888;28;20018;-62
2022/10/25 04:23:05;;;;;;;12.55;6.65;;;13.90;99.90;;;;;;5034554;28;20026;-61
2022/10/25 04:25:30;;;;;;;13.18;5.88;;;14.00;99.90;;;;;;5034018;28;20022;-61
2022/10/25 04:27:59;;;;;;;14.50;6.40;;;14.00;99.90;;;;;;5034548;28;20047;-61
2022/10/25 04:30:24;;;;;;;11.20;5.45;;;13.90;99.90;;;;;;5034205;28;20022;-61
2022/10/25 04:32:50;;;;;;;15.07;5.88;;;13.80;99.90;;;;;;5034593;28;20480;-61
2022/10/25 04:35:15;;;;;;;13.07;6.03;;;13.80;99.90;;;;;;5034469;28;20064;-61
2022/10/25 04:37:41;;;;;;;12.07;6.22;;;13.80;99.90;;;;;;5033875;28;20031;-62
2022/10/25 04:40:07;;;;;;;13.68;5.72;;;13.70;99.90;;;;;;5034440;28;20029;-61
2022/10/25 04:42:33;;;;;;;14.38;5.75;;;13.70;99.90;;;;;;5034345;28;20022;-61
2022/10/25 04:44:59;;;;;;;11.43;6.60;;;13.70;99.90;;;;;;5033494;28;20041;-61
2022/10/25 04:47:25;;;;;;;12.60;6.53;;;13.70;99.90;;;;;;5033852;28;20034;-61
2022/10/25 04:49:50;;;;;;;12.45;6.57;;;13.70;99.90;;;;;;5034082;28;20022;-60
2022/10/25 04:52:16;;;;;;;13.80;6.45;;;13.70;99.90;;;;;;5033515;28;20021;-61
2022/10/25 04:54:42;;;;;;;10.80;5.60;;;13.80;99.90;;;;;;5034409;28;20022;-61
2022/10/25 04:57:07;;;;;;;18.75;6.65;;;13.80;99.90;;;;;;5034296;28;20532;-62
2022/10/25 04:59:33;;;;;;;9.68;5.50;;;13.80;99.90;;;;;;5033021;28;20479;-62
2022/10/25 05:01:58;;;;;;;10.95;6.15;;;13.80;99.90;;;;;;5037527;28;20041;-61
2022/10/25 05:04:24;;;;;;;15.55;5.95;;;13.70;99.90;;;;;;5032811;28;20021;-63
2022/10/25 05:06:49;;;;;;;9.15;4.65;;;13.70;99.90;;;;;;5032899;28;20546;-62
2022/10/25 05:09:15;;;;;;;14.13;6.28;;;13.70;99.90;;;;;;5032916;28;20028;-64
2022/10/25 05:11:40;;;;;;;12.18;6.28;;;13.70;99.90;;;;;;5033963;28;20532;-63
2022/10/25 05:14:06;;;;;;;12.38;5.82;;;13.70;99.90;;;;;;5033274;28;20024;-61
2022/10/25 05:16:33;;;;;;;13.43;6.45;;;13.70;99.90;;;;;;5033777;28;20056;-61
2022/10/25 05:19:00;;;;;;;17.00;6.60;;;13.80;99.90;;;;;;5034056;28;20026;-61
2022/10/25 05:21:29;;;;;;;11.23;6.13;;;13.70;99.90;;;;;;5033205;28;20061;-63
2022/10/25 05:23:56;;;;;;;12.43;6.18;;;13.80;99.90;;;;;;5033816;28;20477;-62
2022/10/25 05:26:22;;;;;;;9.00;5.70;;;13.80;99.90;;;;;;5033547;28;20025;-61
2022/10/25 05:28:49;;;;;;;14.35;6.32;;;13.70;99.90;;;;;;5033054;28;20029;-62
2022/10/25 05:31:17;;;;;;;12.23;5.80;;;13.70;99.90;;;;;;5033954;28;20025;-62
2022/10/25 05:33:44;;;;;;;16.42;7.13;;;13.70;99.90;;;;;;5033070;28;20017;-62
2022/10/25 05:36:11;;;;;;;12.98;6.13;;;13.60;99.90;;;;;;5033103;28;20029;-62
2022/10/25 05:38:37;;;;;;;13.18;6.57;;;13.60;99.90;;;;;;5033500;28;20025;-62
2022/10/25 05:41:03;;;;;;;11.93;6.45;;;13.60;99.90;;;;;;5032866;28;20108;-62
2022/10/25 05:43:28;;;;;;;21.23;6.35;;;13.60;99.90;;;;;;5033414;28;20040;-61
2022/10/25 05:46:13;;;;;;;11.52;6.03;;;13.70;99.90;;;;;;5033323;28;20038;-62
2022/10/25 05:48:39;;;;;;;16.13;6.93;;;13.70;99.90;;;;;;5031556;28;20382;-62
2022/10/25 05:51:16;;;;;;;11.70;7.10;;;13.60;99.90;;;;;;5031764;28;20451;-61
2022/10/25 05:53:53;;;;;;;15.95;7.57;;;13.70;99.90;;;;;;5032966;28;20529;-63
2022/10/25 05:56:20;;;;;;;14.68;7.80;;;13.70;99.90;;;;;;5030390;28;20159;-60
2022/10/25 05:58:46;;;;;;;13.55;7.25;;;13.70;99.90;;;;;;5032591;28;20018;-62
2022/10/25 06:01:20;;;;;;;14.02;7.07;;;13.70;99.90;;;;;;5033305;28;20029;-61
2022/10/25 06:03:47;;;;;;;14.05;7.10;;;13.80;99.90;;;;;;5026235;28;20021;-64
2022/10/25 06:06:13;;;;;;;19.00;7.47;;;13.80;99.90;;;;;;5030592;28;20030;-63
2022/10/25 06:08:39;;;;;;;11.90;6.45;;;13.80;99.90;;;;;;5029934;28;20389;-63
2022/10/25 06:11:10;;;;;;;15.13;7.78;;;13.80;99.90;;;;;;5031528;28;20025;-61
2022/10/25 06:13:36;;;;;;;;;;;13.70;99.90;;;;;;5030351;28;20120;-62
2022/10/25 06:16:04;;;;;;;16.63;7.93;;;13.80;99.90;;;;;;5031825;28;19905;-62
2022/10/25 06:18:31;;;;;;;20.00;9.50;;;13.80;99.90;;;;;;5032550;28;20029;-61
2022/10/25 06:21:00;;;;;;;19.90;8.85;;;13.80;99.90;;;;;;5032713;28;20645;-61
2022/10/25 06:23:26;;;;;;;16.38;8.80;;;13.80;99.90;;;;;;5032348;28;20033;-63
2022/10/25 06:25:52;;;;;;;13.55;9.13;;;13.80;99.90;;;;;;5031967;28;20026;-61
2022/10/25 06:28:18;;;;;;;14.50;8.07;;;13.80;99.90;;;;;;5032819;28;20039;-61
2022/10/25 06:30:44;;;;;;;18.23;8.52;;;13.80;99.90;;;;;;5031600;28;20029;-62
2022/10/25 06:33:09;;;;;;;17.17;9.32;;;13.80;99.90;;;;;;5030670;28;20029;-61
2022/10/25 06:35:35;;;;;;;15.73;8.95;;;13.80;99.90;;;;;;5032462;28;20039;-63
2022/10/25 06:38:01;;;;;;;16.33;8.75;;;13.80;99.90;;;;;;5031485;28;20056;-61
2022/10/25 06:40:26;;;;;;;17.95;9.45;;;13.80;99.90;;;;;;5031555;28;20021;-63
2022/10/25 06:42:55;;;;;;;17.52;8.93;;;13.80;99.90;;;;;;5030791;28;20482;-62
2022/10/25 06:45:25;;;;;;;18.13;8.88;;;13.80;99.90;;;;;;5031565;28;20057;-61
2022/10/25 06:47:51;;;;;;;22.75;9.68;;;13.80;99.90;;;;;;5032233;28;20061;-61
2022/10/25 06:50:17;;;;;;;19.45;9.57;;;13.80;99.90;;;;;;5032201;28;20053;-63
2022/10/25 06:52:42;;;;;;;14.77;8.25;;;13.80;99.90;;;;;;5030799;28;20032;-62
2022/10/25 06:55:08;;;;;;;18.17;10.07;;;13.80;99.90;;;;;;5031120;28;20064;-62
2022/10/25 06:57:33;;;;;;;16.02;8.63;;;13.90;99.90;;;;;;5031108;28;20030;-60
2022/10/25 07:00:00;;;;;;;16.63;8.23;;;13.90;99.90;;;;;;5027899;28;20339;-62
2022/10/25 07:02:26;;;;;;;13.63;7.70;;;13.90;99.90;;;;;;5031763;28;20017;-61
2022/10/25 07:04:51;;;;;;;17.83;8.23;;;13.90;99.90;;;;;;5018706;28;20025;-60
2022/10/25 07:07:17;;;;;;;18.90;9.02;;;13.90;99.90;;;;;;5023559;28;20052;-61
2022/10/25 07:09:42;;;;;;;16.38;9.15;;;13.90;99.90;;;;;;5032522;28;20046;-61
2022/10/25 07:12:08;;;;;;;15.68;8.40;;;13.90;99.90;;;;;;5029710;28;20037;-61
2022/10/25 07:14:33;;;;;;;15.18;8.45;;;14.00;99.90;;;;;;5028969;28;20593;-61
2022/10/25 07:16:59;;;;;;;14.13;7.93;;;13.90;99.90;;;;;;5030364;28;20175;-63
2022/10/25 07:19:25;;;;;;;19.00;8.27;;;13.90;99.90;;;;;;5029194;28;20033;-61
2022/10/25 07:21:50;;;;;;;14.65;8.27;;;13.90;99.90;;;;;;5030158;28;20033;-61
2022/10/25 07:24:16;;;;;;;16.60;8.50;;;13.90;99.90;;;;;;5027993;28;20037;-63
2022/10/25 07:26:42;;;;;;;16.08;8.20;;;13.90;99.90;;;;;;5031097;28;20487;-61
2022/10/25 07:29:08;;;;;;;15.38;7.93;;;14.00;99.90;;;;;;5032266;28;20049;-63
2022/10/25 07:31:39;;;;;;;16.48;8.32;;;13.90;99.90;;;;;;5033518;28;20021;-61
2022/10/25 07:34:06;;;;;;;15.40;8.13;;;13.90;99.90;;;;;;5028694;28;20030;-63
2022/10/25 07:36:31;;;;;;;17.95;8.15;;;13.80;99.90;;;;;;5032444;28;20236;-59
2022/10/25 07:38:57;;;;;;;17.85;8.60;;;13.80;99.90;;;;;;5032697;28;20470;-61
2022/10/25 07:41:24;;;;;;;13.80;8.23;;;13.70;99.90;;;;;;5032797;28;20030;-60
2022/10/25 07:43:49;;;;;;;18.55;9.02;;;13.70;99.90;;;;;;5033250;28;20397;-60
2022/10/25 07:46:15;;;;;;;15.93;8.65;;;13.70;99.90;;;;;;5033702;28;20041;-61
2022/10/25 07:48:41;;;;;;;14.30;8.05;;;13.80;99.90;;;;;;5032590;28;20068;-60
2022/10/25 07:51:11;;;;;;;11.93;8.27;;;13.80;99.90;;;;;;5032397;28;20032;-61
2022/10/25 07:53:37;;;;;;;18.17;8.70;;;13.80;99.90;;;;;;5033999;28;20021;-61
2022/10/25 07:56:03;;;;;;;19.10;8.68;;;13.80;99.90;;;;;;5032842;28;20363;-61
2022/10/25 07:58:29;;;;;;;17.40;8.65;;;13.70;99.90;;;;;;5030140;28;20041;-60
2022/10/25 08:01:03;;;;;;;12.57;7.90;;;13.70;99.90;;;;;;5032839;28;20025;-61
2022/10/25 08:03:29;;;;;;;15.55;7.63;;;13.70;99.90;;;;;;5033841;28;20029;-60
2022/10/25 08:05:55;;;;;;;15.30;8.43;;;13.70;99.90;;;;;;5033171;28;20355;-63
2022/10/25 08:08:22;;;;;;;18.58;8.27;;;13.80;99.90;;;;;;5032570;28;20151;-61
2022/10/25 08:10:48;;;;;;;15.27;7.55;;;13.80;99.90;;;;;;5033094;28;20061;-61
2022/10/25 08:13:13;;;;;;;16.30;8.60;;;13.80;99.90;;;;;;5033731;28;20154;-60
2022/10/25 08:15:39;;;;;;;18.08;7.60;;;13.70;99.90;;;;;;5031270;28;20040;-61
2022/10/25 08:18:08;;;;;;;14.00;7.03;;;13.70;99.90;;;;;;5029343;28;20108;-60
2022/10/25 08:20:34;;;;;;;14.35;7.65;;;13.70;99.90;;;;;;5030740;28;20021;-60
2022/10/25 08:23:00;;;;;;;12.35;6.93;;;13.60;99.90;;;;;;5033182;28;20034;-62
2022/10/25 08:25:27;;;;;;;12.52;7.35;;;13.60;99.90;;;;;;5032579;28;20021;-60
2022/10/25 08:27:53;;;;;;;11.73;6.97;;;13.70;99.90;;;;;;5033002;28;20036;-60
2022/10/25 08:30:19;;;;;;;14.93;6.60;;;13.70;99.90;;;;;;5031091;28;20026;-60
2022/10/25 08:32:44;;;;;;;16.40;7.00;;;13.70;99.90;;;;;;5031726;28;20036;-60
2022/10/25 08:35:10;;;;;;;13.80;6.57;;;13.70;99.90;;;;;;5032986;28;20151;-59
2022/10/25 08:37:36;;;;;;;12.30;6.95;;;13.80;99.90;;;;;;5031524;28;20486;-59
2022/10/25 08:40:01;;;;;;;10.95;6.25;;;13.80;99.90;;;;;;5030651;28;20124;-60
2022/10/25 08:42:40;;;;;;;11.57;6.20;;;13.80;99.90;;;;;;5032501;28;20569;-59
2022/10/25 08:45:36;;;;;;;14.38;6.45;;;13.80;99.90;;;;;;5031617;28;20046;-60
2022/10/25 08:48:04;;;;;;;13.27;7.53;;;13.90;99.90;;;;;;5029428;28;20096;-58
2022/10/25 08:50:52;;;;;;;16.55;7.05;;;13.90;99.90;;;;;;5031821;28;20037;-53
2022/10/25 08:53:24;;;;;;;13.70;6.82;;;13.90;99.90;;;;;;5031639;28;20106;-57
2022/10/25 08:55:50;;;;;;;15.93;8.07;;;13.90;99.90;;;;;;5032811;28;20021;-59
2022/10/25 08:58:22;;;;;;;14.00;7.82;;;13.90;99.90;;;;;;5032178;28;20017;-60
2022/10/25 09:00:48;;;;;;;12.32;7.35;;;13.90;99.90;;;;;;5032919;28;20030;-60
2022/10/25 09:03:24;;;;;;;16.42;7.25;;;14.00;99.90;;;;;;5033006;28;20010;-59
2022/10/25 09:06:15;;;;;;;15.88;8.27;;;14.00;99.90;;;;;;5032094;28;20037;-59
2022/10/25 09:08:56;;;;;;;12.43;7.13;;;14.10;99.90;;;;;;5032710;28;20151;-59
2022/10/25 09:11:47;;;;;;;14.55;7.80;;;14.10;99.90;;;;;;5034244;28;20057;-57
2022/10/25 09:14:17;;;;;;;13.90;8.68;;;14.20;99.90;;;;;;5036457;28;20112;-58
2022/10/25 09:16:50;;;;;;;17.52;8.05;;;14.20;99.90;;;;;;5032826;28;20068;-59
2022/10/25 09:19:38;;;;;;;14.07;7.75;;;14.20;99.90;;;;;;5031673;28;20025;-62
2022/10/25 09:22:20;;;;;;;12.70;7.38;;;14.20;99.90;;;;;;5031154;28;20018;-59
2022/10/25 09:25:19;;;;;;;13.93;7.25;;;14.30;99.90;;;;;;5015947;28;20110;-58
2022/10/25 09:28:12;;;;;;;14.57;7.57;;;14.30;99.90;;;;;;5026778;28;20494;-58
2022/10/25 09:30:42;;;;;;;14.90;7.63;;;14.30;99.90;;;;;;5032535;28;20057;-59
2022/10/25 09:33:13;;;;;;;14.90;8.02;;;14.30;99.90;;;;;;5032760;28;20041;-55
2022/10/25 09:35:57;;;;;;;14.55;8.30;;;14.40;99.90;;;;;;5033178;28;20068;-55
2022/10/25 09:38:45;;;;;;;17.88;8.60;;;14.40;99.90;;;;;;5013347;28;20026;-59
2022/10/25 09:41:34;;;;;;;18.35;9.55;;;14.40;99.90;;;;;;5012779;28;20030;-58
2022/10/25 09:44:02;;;;;;;13.88;8.15;;;14.40;99.90;;;;;;5013403;28;20042;-57
2022/10/25 09:46:57;;;;;;;14.68;7.95;;;14.50;99.90;;;;;;5013047;28;20026;-60
2022/10/25 09:49:30;;;;;;;15.50;8.02;;;14.50;99.90;;;;;;5024176;28;20034;-59
2022/10/25 09:52:10;;;;;;;15.18;7.90;;;14.50;99.90;;;;;;5033085;28;20032;-61
2022/10/25 09:54:56;;;;;;;16.55;8.93;;;14.50;99.90;;;;;;5032515;28;20032;-61
2022/10/25 09:57:22;;;;;;;12.77;7.32;;;14.50;99.90;;;;;;5033128;28;20021;-62
2022/10/25 09:59:50;;;;;;;17.80;8.63;;;14.50;99.90;;;;;;5031273;28;20029;-61
2022/10/25 10:02:23;;;;;;;15.10;8.85;;;14.50;99.90;;;;;;5029276;28;20140;-60
2022/10/25 10:04:49;;;;;;;16.33;9.23;;;14.60;99.90;;;;;;5023989;28;20053;-60
2022/10/25 10:07:23;;;;;;;17.67;8.38;;;14.50;99.90;;;;;;5032465;28;20041;-59
2022/10/25 10:09:54;;;;;;;13.77;7.78;;;14.60;99.90;;;;;;5032165;28;20041;-60
2022/10/25 10:12:42;;;;;;;15.25;8.32;;;14.60;99.90;;;;;;5032302;28;20499;-60
2022/10/25 10:15:21;;;;;;;16.67;8.07;;;14.60;99.90;;;;;;5031435;28;20454;-60
2022/10/25 10:17:47;;;;;;;13.77;7.85;;;14.70;99.90;;;;;;5032208;28;20029;-61
2022/10/25 10:20:16;;;;;;;13.13;8.00;;;14.70;99.90;;;;;;5032243;28;20369;-64
2022/10/25 10:22:52;;;;;;;15.23;7.57;;;14.80;99.90;;;;;;5031986;28;20104;-62
2022/10/25 10:25:24;;;;;;;14.18;7.80;;;14.90;99.90;;;;;;5032196;28;20386;-60
2022/10/25 10:27:53;;;;;;;11.02;7.18;;;15.00;99.90;;;;;;5031874;28;20082;-60
2022/10/25 10:30:30;;;;;;;15.68;8.18;;;15.10;99.90;;;;;;5030430;28;20026;-61
2022/10/25 10:33:00;;;;;;;10.38;6.93;;;15.30;99.90;;;;;;5032073;28;20379;-60
2022/10/25 10:35:35;;;;;;;11.35;7.13;;;15.50;99.90;;;;;;5032386;28;20094;-61
2022/10/25 10:38:26;;;;;;;13.60;7.97;;;15.70;99.90;;;;;;5031134;28;20065;-60
2022/10/25 10:41:10;;;;;;;14.52;7.63;;;15.80;99.90;;;;;;5032223;28;20113;-60
2022/10/25 10:43:36;;;;;;;11.85;6.82;;;15.80;99.90;;;;;;5031412;28;20112;-61
2022/10/25 10:46:06;;;;;;;14.65;7.78;;;15.90;99.90;;;;;;5032013;28;20141;-60
2022/10/25 10:48:35;;;;;;;13.48;7.22;;;15.90;99.90;;;;;;5031643;28;20036;-61
2022/10/25 10:51:02;;;;;;;12.13;7.00;;;15.90;99.90;;;;;;5029923;28;20394;-61
2022/10/25 10:53:31;;;;;;;15.10;7.38;;;15.90;99.90;;;;;;5031605;28;20024;-60
2022/10/25 10:56:01;;;;;;;11.95;6.82;;;15.80;99.90;;;;;;5031607;28;20029;-61
2022/10/25 10:58:38;;;;;;;16.45;8.85;;;15.80;99.90;;;;;;5031420;28;20014;-59
2022/10/25 11:01:08;;;;;;;13.57;7.72;;;15.70;99.90;;;;;;5031351;28;20036;-61
2022/10/25 11:03:35;;;;;;;12.93;7.13;;;15.70;99.90;;;;;;5031615;28;20543;-61
2022/10/25 11:06:01;;;;;;;16.80;8.23;;;15.60;99.90;;;;;;5031142;28;20404;-59
2022/10/25 11:08:26;;;;;;;13.27;7.13;;;15.60;99.90;;;;;;5031564;28;20021;-60
2022/10/25 11:11:18;;;;;;;16.55;7.65;;;15.60;99.90;;;;;;5031600;28;20047;-60
2022/10/25 11:13:57;;;;;;;14.63;7.95;;;15.50;99.90;;;;;;5031871;28;20021;-59
2022/10/25 11:16:47;;;;;;;12.50;7.18;;;15.50;99.90;;;;;;5037197;28;20021;-59
2022/10/25 11:19:28;;;;;;;13.50;6.15;;;15.50;99.90;;;;;;5033364;28;20371;-63
2022/10/25 11:22:05;;;;;;;;;;;15.50;99.90;;;;;;5032168;28;20037;-61
2022/10/25 11:24:50;;;;;;;12.77;6.80;;;15.50;99.90;;;;;;5031491;28;19909;-62
2022/10/25 11:27:24;;;;;;;10.55;6.65;;;15.50;99.90;;;;;;5029534;28;20077;-60
2022/10/25 11:30:08;;;;;;;13.85;6.45;;;15.70;99.90;;;;;;5031303;28;20466;-62
2022/10/25 11:33:07;;;;;;;12.43;6.05;;;15.90;99.90;;;;;;5030704;28;20048;-60
2022/10/25 11:36:03;;;;;;;14.00;8.18;;;16.10;99.90;;;;;;5031161;28;20109;-60
2022/10/25 11:38:40;;;;;;;12.30;6.90;;;16.30;99.90;;;;;;5031521;28;20061;-59
2022/10/25 11:41:20;;;;;;;14.00;6.68;;;16.40;99.90;;;;;;5030950;28;20068;-60
2022/10/25 11:43:55;;;;;;;12.85;6.00;;;16.70;99.90;;;;;;5031416;28;20041;-59
2022/10/25 11:47:04;;;;;;;12.70;6.18;;;16.80;99.90;;;;;;5030704;28;20037;-59
2022/10/25 11:49:56;;;;;;;8.93;5.55;;;16.90;99.90;;;;;;5009012;28;20030;-60
2022/10/25 11:52:41;;;;;;;13.02;5.93;;;16.90;99.90;;;;;;5030586;28;20565;-60
2022/10/25 11:55:19;;;;;;;14.52;6.05;;;16.80;99.90;;;;;;5030801;28;20018;-62
2022/10/25 11:58:05;;;;;;;7.85;4.40;;;16.90;99.90;;;;;;5031277;28;20024;-60
2022/10/25 12:01:01;;;;;;;12.13;5.15;;;16.90;99.90;;;;;;5030059;28;20030;-59
2022/10/25 12:03:54;;;;;;;10.95;5.82;;;17.00;99.90;;;;;;5020709;28;20033;-60
2022/10/25 12:06:33;;;;;;;11.55;5.50;;;17.00;99.90;;;;;;5031158;28;20041;-60
2022/10/25 12:09:29;;;;;;;9.77;4.97;;;17.00;99.90;;;;;;5030538;28;20029;-60
2022/10/25 12:12:01;;;;;;;9.15;4.40;;;16.80;99.90;;;;;;5032663;28;20072;-59
2022/10/25 12:14:35;;;;;;;9.75;4.85;;;16.80;99.90;;;;;;5034147;28;20048;-60
2022/10/25 12:17:04;;;;;;;11.25;5.15;;;16.70;99.90;;;;;;5034737;28;20125;-59
2022/10/25 12:19:40;;;;;;;9.30;4.53;;;16.70;99.90;;;;;;5034486;28;20154;-61
2022/10/25 12:22:29;;;;;;;9.00;4.25;;;16.60;99.90;;;;;;5033951;28;20075;-61
2022/10/25 12:25:17;;;;;;;8.82;4.40;;;16.50;99.90;;;;;;5034701;28;20053;-61
2022/10/25 12:27:47;;;;;;;10.30;4.47;;;16.50;99.90;;;;;;5034437;28;20455;-60
2022/10/25 12:30:17;;;;;;;9.07;4.43;;;16.40;99.90;;;;;;5033980;28;20022;-59
2022/10/25 12:32:59;;;;;;;12.47;3.70;;;16.40;99.90;;;;;;5034328;28;20033;-60
2022/10/25 12:35:29;;;;;;;7.97;4.07;;;16.40;99.90;;;;;;5034200;28;20021;-64
2022/10/25 12:37:59;;;;;;;9.30;4.03;;;16.40;99.90;;;;;;5034342;28;20029;-60
2022/10/25 12:40:26;;;;;;;7.40;4.13;;;16.50;99.70;;;;;;5034631;28;20032;-62
2022/10/25 12:42:58;;;;;;;12.23;4.65;;;16.50;99.50;;;;;;5033883;28;20017;-63
2022/10/25 12:45:48;;;;;;;9.93;5.03;;;16.50;99.70;;;;;;5034142;28;20061;-60
2022/10/25 12:48:51;;;;;;;9.75;4.18;;;16.40;99.30;;;;;;5033829;28;20025;-62
2022/10/25 12:51:43;;;;;;;8.02;4.25;;;16.50;99.50;;;;;;5033249;28;20060;-60
2022/10/25 12:54:11;;;;;;;6.53;3.75;;;16.60;99.50;;;;;;5034031;28;20029;-60
2022/10/25 12:56:49;;;;;;;11.73;4.40;;;16.60;99.50;;;;;;5033249;28;20014;-64
2022/10/25 12:59:37;;;;;;;8.60;4.20;;;16.50;99.50;;;;;;5033945;28;20459;-62
2022/10/25 13:02:11;;;;;;;6.38;3.63;;;16.50;99.60;;;;;;5033519;28;20152;-63